createdAt,value
2022-07-30T00:00:36.796Z,60.13
2022-07-30T00:03:05.035Z,60.47
2022-07-30T00:05:34.624Z,60.83
2022-07-30T00:08:02.787Z,60.69
2022-07-30T00:10:30.969Z,61.17
2022-07-30T00:12:59.134Z,61.89
2022-07-30T00:15:28.685Z,62.24
2022-07-30T00:17:56.861Z,62.42
2022-07-30T00:20:27.953Z,62.66
2022-07-30T00:22:57.849Z,63.12
2022-07-30T00:25:25.993Z,63.41
2022-07-30T00:27:56.788Z,63.32
2022-07-30T00:30:25.128Z,63.50
2022-07-30T00:32:53.407Z,63.20
2022-07-30T00:35:21.535Z,63.06
2022-07-30T00:37:49.689Z,63.18
2022-07-30T00:40:19.614Z,62.68
2022-07-30T00:42:49.457Z,62.82
2022-07-30T00:45:18.658Z,63.41
2022-07-30T00:47:47.068Z,63.49
2022-07-30T00:50:16.562Z,63.29
2022-07-30T00:52:44.907Z,63.39
2022-07-30T00:55:15.043Z,62.93
2022-07-30T00:57:45.011Z,63.11
2022-07-30T01:00:16.639Z,63.25
2022-07-30T01:02:45.017Z,63.25
2022-07-30T01:05:14.364Z,63.28
2022-07-30T01:07:42.881Z,62.96
2022-07-30T01:10:12.953Z,62.35
2022-07-30T01:12:42.041Z,62.18
2022-07-30T01:15:12.845Z,61.80
2022-07-30T01:17:41.065Z,61.37
2022-07-30T01:20:13.437Z,61.27
2022-07-30T01:22:49.000Z,61.33
2022-07-30T01:25:27.059Z,61.20
2022-07-30T01:28:00.778Z,61.21
2022-07-30T01:30:30.040Z,61.02
2022-07-30T01:33:01.147Z,61.17
2022-07-30T01:35:31.912Z,61.37
2022-07-30T01:38:01.778Z,61.51
2022-07-30T01:40:30.656Z,61.75
2022-07-30T01:43:03.484Z,62.09
2022-07-30T01:45:41.471Z,62.55
2022-07-30T01:48:14.676Z,62.25
2022-07-30T01:50:48.287Z,62.62
2022-07-30T01:53:17.944Z,63.07
2022-07-30T01:55:47.776Z,63.47
2022-07-30T01:58:21.582Z,63.58
2022-07-30T02:00:58.329Z,63.81
2022-07-30T02:03:28.137Z,64.09
2022-07-30T02:06:02.005Z,64.08
2022-07-30T02:08:37.882Z,64.19
2022-07-30T02:11:10.353Z,64.57
2022-07-30T02:13:45.355Z,64.71
2022-07-30T02:16:18.647Z,64.70
2022-07-30T02:18:56.983Z,65.01
2022-07-30T02:21:36.349Z,65.31
2022-07-30T02:24:09.454Z,65.43
2022-07-30T02:26:39.455Z,65.74
2022-07-30T02:29:11.665Z,65.96
2022-07-30T02:31:42.936Z,66.26
2022-07-30T02:34:14.401Z,66.33
2022-07-30T02:36:44.350Z,66.46
2022-07-30T02:39:15.467Z,66.95
2022-07-30T02:41:49.686Z,67.12
2022-07-30T02:44:21.822Z,67.48
2022-07-30T02:46:52.535Z,67.47
2022-07-30T02:49:41.283Z,67.53
2022-07-30T02:52:13.661Z,67.26
2022-07-30T02:54:43.462Z,67.11
2022-07-30T02:57:12.730Z,66.94
2022-07-30T02:59:44.862Z,66.43
2022-07-30T03:02:15.186Z,67.03
2022-07-30T03:04:44.511Z,67.18
2022-07-30T03:07:18.015Z,67.24
2022-07-30T03:09:51.500Z,67.06
2022-07-30T03:12:23.019Z,67.32
2022-07-30T03:14:54.624Z,67.08
2022-07-30T03:17:25.083Z,66.81
2022-07-30T03:19:56.098Z,66.49
2022-07-30T03:22:31.310Z,66.11
2022-07-30T03:25:03.448Z,66.22
2022-07-30T03:27:33.207Z,66.35
2022-07-30T03:30:03.913Z,66.27
2022-07-30T03:32:32.759Z,66.26
2022-07-30T03:35:06.137Z,66.15
2022-07-30T03:37:36.943Z,65.82
2022-07-30T03:40:08.194Z,65.17
2022-07-30T03:42:37.244Z,64.75
2022-07-30T03:45:10.057Z,64.93
2022-07-30T03:47:42.106Z,64.77
2022-07-30T03:50:13.794Z,64.62
2022-07-30T03:52:42.963Z,64.79
2022-07-30T03:55:16.775Z,65.07
2022-07-30T03:57:51.295Z,65.35
2022-07-30T04:00:27.225Z,65.29
2022-07-30T04:02:55.504Z,65.43
2022-07-30T04:05:40.999Z,65.41
2022-07-30T04:08:12.854Z,65.33
2022-07-30T04:10:42.632Z,65.55
2022-07-30T04:13:49.535Z,65.31
2022-07-30T04:16:39.018Z,65.54
2022-07-30T04:19:17.757Z,65.43
2022-07-30T04:21:47.907Z,65.33
2022-07-30T04:24:18.865Z,65.35
2022-07-30T04:26:48.787Z,65.09
2022-07-30T04:29:22.671Z,65.11
2022-07-30T04:31:56.151Z,65.77
2022-07-30T04:34:32.998Z,65.43
2022-07-30T04:37:01.845Z,65.50
2022-07-30T04:39:30.786Z,65.58
2022-07-30T04:41:58.986Z,65.72
2022-07-30T04:44:38.026Z,65.65
2022-07-30T04:47:27.588Z,66.17
2022-07-30T04:50:17.532Z,66.23
2022-07-30T04:52:49.092Z,65.57
2022-07-30T04:55:24.611Z,65.90
2022-07-30T04:57:54.589Z,66.69
2022-07-30T05:00:25.935Z,67.57
2022-07-30T05:02:59.094Z,67.71
2022-07-30T05:05:28.132Z,67.34
2022-07-30T05:07:58.441Z,67.90
2022-07-30T05:10:28.539Z,67.77
2022-07-30T05:12:56.843Z,67.45
2022-07-30T05:15:37.399Z,67.35
2022-07-30T05:18:09.747Z,67.49
2022-07-30T05:20:41.605Z,66.77
2022-07-30T05:23:20.059Z,66.53
2022-07-30T05:25:59.552Z,67.24
2022-07-30T05:28:36.108Z,66.99
2022-07-30T05:31:09.102Z,66.67
2022-07-30T05:33:42.656Z,65.48
2022-07-30T05:36:16.671Z,64.97
2022-07-30T05:38:44.849Z,64.71
2022-07-30T05:41:36.003Z,65.00
2022-07-30T05:44:14.091Z,66.62
2022-07-30T05:46:42.692Z,66.43
2022-07-30T05:49:12.472Z,66.64
2022-07-30T05:51:41.252Z,66.58
2022-07-30T05:54:10.591Z,66.41
2022-07-30T05:57:02.293Z,66.29
2022-07-30T05:59:33.393Z,66.18
2022-07-30T06:02:10.111Z,65.32
2022-07-30T06:04:57.988Z,65.29
2022-07-30T06:07:26.358Z,65.11
2022-07-30T06:10:00.125Z,64.55
2022-07-30T06:12:29.320Z,64.17
2022-07-30T06:14:58.787Z,64.36
2022-07-30T06:17:31.281Z,64.08
2022-07-30T06:20:29.677Z,63.69
2022-07-30T06:23:24.510Z,63.32
2022-07-30T06:26:07.833Z,63.24
2022-07-30T06:28:38.727Z,62.95
2022-07-30T06:31:16.078Z,62.83
2022-07-30T06:33:44.839Z,62.88
2022-07-30T06:36:14.726Z,62.24
2022-07-30T06:38:59.878Z,62.26
2022-07-30T06:41:45.583Z,62.04
2022-07-30T06:44:15.656Z,62.37
2022-07-30T06:47:07.441Z,62.66
2022-07-30T06:49:37.447Z,62.40
2022-07-30T06:52:08.705Z,62.05
2022-07-30T06:54:37.401Z,62.00
2022-07-30T06:57:20.590Z,61.55
2022-07-30T06:59:56.287Z,61.96
2022-07-30T07:02:45.114Z,62.19
2022-07-30T07:05:15.371Z,61.53
2022-07-30T07:07:58.255Z,61.30
2022-07-30T07:10:31.545Z,61.08
2022-07-30T07:13:32.063Z,62.36
2022-07-30T07:16:03.189Z,61.76
2022-07-30T07:18:32.545Z,61.15
2022-07-30T07:21:06.337Z,61.70
2022-07-30T07:23:41.802Z,61.40
2022-07-30T07:26:24.758Z,61.00
2022-07-30T07:28:53.602Z,60.23
2022-07-30T07:32:06.430Z,60.35
2022-07-30T07:34:14.253Z,59.37
2022-07-30T07:36:45.218Z,58.53
2022-07-30T07:39:15.023Z,58.21
2022-07-30T07:41:48.959Z,57.92
2022-07-30T07:44:21.850Z,56.91
2022-07-30T07:46:50.026Z,56.16
2022-07-30T07:49:18.381Z,55.27
2022-07-30T07:51:52.497Z,54.76
2022-07-30T07:54:23.550Z,54.17
2022-07-30T07:56:56.623Z,53.72
2022-07-30T07:59:41.214Z,53.19
2022-07-30T08:02:21.487Z,54.03
2022-07-30T08:05:01.024Z,55.04
2022-07-30T08:07:49.653Z,55.01
2022-07-30T08:10:19.388Z,55.74
2022-07-30T08:12:47.503Z,56.09
2022-07-30T08:15:22.233Z,56.13
2022-07-30T08:18:10.645Z,56.09
2022-07-30T08:21:17.056Z,55.51
2022-07-30T08:23:46.223Z,55.93
2022-07-30T08:26:15.994Z,55.73
2022-07-30T08:28:45.810Z,55.46
2022-07-30T08:31:14.726Z,55.92
2022-07-30T08:33:42.933Z,53.47
2022-07-30T08:36:12.497Z,51.96
2022-07-30T08:38:40.708Z,51.34
2022-07-30T08:41:10.441Z,51.92
2022-07-30T08:43:41.530Z,51.64
2022-07-30T08:46:11.343Z,51.41
2022-07-30T08:48:57.317Z,51.48
2022-07-30T08:51:26.149Z,51.09
2022-07-30T08:54:13.019Z,50.91
2022-07-30T08:56:42.868Z,51.15
2022-07-30T08:59:12.593Z,50.30
2022-07-30T09:01:40.740Z,50.46
2022-07-30T09:04:08.924Z,51.27
2022-07-30T09:06:38.236Z,51.72
2022-07-30T09:09:07.364Z,52.43
2022-07-30T09:11:36.465Z,52.57
2022-07-30T09:14:13.650Z,53.16
2022-07-30T09:16:43.215Z,53.50
2022-07-30T09:19:17.916Z,54.08
2022-07-30T09:21:57.423Z,54.38
2022-07-30T09:24:43.974Z,54.08
2022-07-30T09:27:45.312Z,53.55
2022-07-30T09:30:47.363Z,60.31
2022-07-30T09:33:36.753Z,63.92
2022-07-30T09:36:32.983Z,65.34
2022-07-30T09:39:34.916Z,66.44
2022-07-30T09:42:23.535Z,65.94
2022-07-30T09:44:53.688Z,66.26
2022-07-30T09:47:33.841Z,66.79
2022-07-30T09:50:07.972Z,67.05
2022-07-30T09:52:36.981Z,68.10
2022-07-30T09:55:14.361Z,76.83
2022-07-30T09:57:58.877Z,97.87
2022-07-30T10:00:29.100Z,100.00
2022-07-30T10:03:21.956Z,100.00
2022-07-30T10:06:33.964Z,100.00
2022-07-30T10:09:13.691Z,100.00
2022-07-30T10:11:48.602Z,100.00
2022-07-30T10:14:18.278Z,100.00
2022-07-30T10:17:00.207Z,100.00
2022-07-30T10:19:40.228Z,100.00
2022-07-30T10:22:29.424Z,100.00
2022-07-30T10:25:36.392Z,100.00
2022-07-30T10:28:24.167Z,100.00
2022-07-30T10:30:53.115Z,100.00
2022-07-30T10:33:36.418Z,100.00
2022-07-30T10:36:12.142Z,100.00
2022-07-30T10:38:46.013Z,100.00
2022-07-30T10:41:44.363Z,100.00
2022-07-30T10:44:46.814Z,100.00
2022-07-30T10:47:18.654Z,100.00
2022-07-30T10:50:11.652Z,100.00
2022-07-30T10:52:52.765Z,100.00
2022-07-30T10:55:37.003Z,100.00
2022-07-30T10:58:08.711Z,100.00
2022-07-30T11:00:58.550Z,100.00
2022-07-30T11:03:41.568Z,100.00
2022-07-30T11:06:26.950Z,100.00
2022-07-30T11:08:57.121Z,100.00
2022-07-30T11:12:01.401Z,100.00
2022-07-30T11:14:58.450Z,100.00
2022-07-30T11:18:00.221Z,100.00
2022-07-30T11:20:30.344Z,100.00
2022-07-30T11:23:14.245Z,100.00
2022-07-30T11:25:51.084Z,100.00
2022-07-30T11:28:45.986Z,100.00
2022-07-30T11:31:55.609Z,100.00
2022-07-30T11:34:30.763Z,100.00
2022-07-30T11:37:21.963Z,100.00
2022-07-30T11:40:12.221Z,100.00
2022-07-30T11:42:43.690Z,100.00
2022-07-30T11:45:29.657Z,100.00
2022-07-30T11:48:01.456Z,100.00
2022-07-30T11:50:32.488Z,100.00
2022-07-30T11:53:04.124Z,99.82
2022-07-30T11:55:34.089Z,97.79
2022-07-30T11:58:04.279Z,95.36
2022-07-30T12:00:38.490Z,92.22
2022-07-30T12:03:14.691Z,89.27
2022-07-30T12:05:44.034Z,87.70
2022-07-30T12:08:35.246Z,88.41
2022-07-30T12:11:03.208Z,87.75
2022-07-30T12:13:45.346Z,88.79
2022-07-30T12:16:17.645Z,88.14
2022-07-30T12:18:46.643Z,88.96
2022-07-30T12:21:16.871Z,89.24
2022-07-30T12:23:55.281Z,84.31
2022-07-30T12:26:26.766Z,84.88
2022-07-30T12:28:56.527Z,83.35
2022-07-30T12:31:24.953Z,82.01
2022-07-30T12:33:53.307Z,81.96
2022-07-30T12:36:32.618Z,80.34
2022-07-30T12:39:03.937Z,80.93
2022-07-30T12:41:45.822Z,77.88
2022-07-30T12:44:35.860Z,78.35
2022-07-30T12:47:05.446Z,77.06
2022-07-30T12:49:37.624Z,76.99
2022-07-30T12:52:28.829Z,76.73
2022-07-30T12:55:10.367Z,76.15
2022-07-30T12:57:57.438Z,72.60
2022-07-30T13:00:27.104Z,70.42
2022-07-30T13:02:55.862Z,67.26
2022-07-30T13:05:45.355Z,65.90
2022-07-30T13:08:13.543Z,66.87
2022-07-30T13:10:58.263Z,67.00
2022-07-30T13:13:28.058Z,67.70
2022-07-30T13:16:01.329Z,67.58
2022-07-30T13:18:30.293Z,66.97
2022-07-30T13:20:58.576Z,66.23
2022-07-30T13:23:27.595Z,67.61
2022-07-30T13:25:57.855Z,68.79
2022-07-30T13:28:26.118Z,68.91
2022-07-30T13:30:54.323Z,69.56
2022-07-30T13:33:22.461Z,69.40
2022-07-30T13:35:50.643Z,69.49
2022-07-30T13:38:18.757Z,70.79
2022-07-30T13:40:47.104Z,71.51
2022-07-30T13:43:16.766Z,72.13
2022-07-30T13:45:44.903Z,72.10
2022-07-30T13:48:13.086Z,71.62
2022-07-30T13:50:41.425Z,71.10
2022-07-30T13:53:10.200Z,70.84
2022-07-30T13:55:38.796Z,70.20
2022-07-30T13:58:08.578Z,68.33
2022-07-30T14:00:38.905Z,67.52
2022-07-30T14:03:09.004Z,68.76
2022-07-30T14:05:42.042Z,68.12
2022-07-30T14:08:11.976Z,68.61
2022-07-30T14:10:41.011Z,69.95
2022-07-30T14:13:10.402Z,71.17
2022-07-30T14:15:45.455Z,70.75
2022-07-30T14:18:13.596Z,71.28
2022-07-30T14:20:45.546Z,71.95
2022-07-30T14:23:16.454Z,70.97
2022-07-30T14:25:44.749Z,69.66
2022-07-30T14:28:14.002Z,69.77
2022-07-30T14:30:42.209Z,68.77
2022-07-30T14:33:12.140Z,68.33
2022-07-30T14:35:40.374Z,68.16
2022-07-30T14:38:08.610Z,67.16
2022-07-30T14:40:36.762Z,66.48
2022-07-30T14:43:06.545Z,67.62
2022-07-30T14:45:36.525Z,66.01
2022-07-30T14:48:05.054Z,67.06
2022-07-30T14:50:46.594Z,67.63
2022-07-30T14:53:22.750Z,68.08
2022-07-30T14:55:50.930Z,67.28
2022-07-30T14:58:19.172Z,67.05
2022-07-30T15:00:48.394Z,67.63
2022-07-30T15:03:17.169Z,67.28
2022-07-30T15:05:50.300Z,67.17
2022-07-30T15:08:20.689Z,65.81
2022-07-30T15:10:49.253Z,63.93
2022-07-30T15:13:18.115Z,62.09
2022-07-30T15:15:47.781Z,62.04
2022-07-30T15:18:16.044Z,58.06
2022-07-30T15:20:44.196Z,57.32
2022-07-30T15:23:14.402Z,58.22
2022-07-30T15:25:43.081Z,58.04
2022-07-30T15:28:11.197Z,59.41
2022-07-30T15:30:39.356Z,60.94
2022-07-30T15:33:07.612Z,63.80
2022-07-30T15:35:36.780Z,63.10
2022-07-30T15:38:05.348Z,59.82
2022-07-30T15:40:34.956Z,60.19
2022-07-30T15:43:06.815Z,62.28
2022-07-30T15:45:52.317Z,59.29
2022-07-30T15:48:27.408Z,60.64
2022-07-30T15:51:02.732Z,59.27
2022-07-30T15:53:31.355Z,60.39
2022-07-30T15:56:01.623Z,62.36
2022-07-30T15:58:29.758Z,63.71
2022-07-30T16:00:58.051Z,64.50
2022-07-30T16:03:26.192Z,64.48
2022-07-30T16:05:54.431Z,64.62
2022-07-30T16:08:22.638Z,65.33
2022-07-30T16:10:51.994Z,65.81
2022-07-30T16:13:21.612Z,64.99
2022-07-30T16:15:49.893Z,64.45
2022-07-30T16:18:18.102Z,64.07
2022-07-30T16:20:46.311Z,62.90
2022-07-30T16:23:19.444Z,62.45
2022-07-30T16:25:49.385Z,62.53
2022-07-30T16:28:17.857Z,61.93
2022-07-30T16:30:50.740Z,62.51
2022-07-30T16:33:20.848Z,62.40
2022-07-30T16:35:50.955Z,62.12
2022-07-30T16:38:19.477Z,61.73
2022-07-30T16:40:47.856Z,61.79
2022-07-30T16:43:20.198Z,61.30
2022-07-30T16:45:49.982Z,61.11
2022-07-30T16:48:18.332Z,61.35
2022-07-30T16:50:46.841Z,60.36
2022-07-30T16:53:15.039Z,60.87
2022-07-30T16:55:45.981Z,60.64
2022-07-30T16:58:14.139Z,60.27
2022-07-30T17:00:42.545Z,60.08
2022-07-30T17:03:20.210Z,59.80
2022-07-30T17:05:48.868Z,59.14
2022-07-30T17:08:17.735Z,57.54
2022-07-30T17:10:46.495Z,57.19
2022-07-30T17:13:16.247Z,57.14
2022-07-30T17:15:45.592Z,57.22
2022-07-30T17:18:17.163Z,58.07
2022-07-30T17:20:45.358Z,57.87
2022-07-30T17:23:13.655Z,58.31
2022-07-30T17:25:41.807Z,58.52
2022-07-30T17:28:09.915Z,58.90
2022-07-30T17:30:38.139Z,59.25
2022-07-30T17:33:06.465Z,59.71
2022-07-30T17:35:36.004Z,60.24
2022-07-30T17:38:04.326Z,60.60
2022-07-30T17:40:34.569Z,61.50
2022-07-30T17:43:04.900Z,62.18
2022-07-30T17:45:34.445Z,62.39
2022-07-30T17:48:02.745Z,62.67
2022-07-30T17:50:32.268Z,62.65
2022-07-30T17:53:03.657Z,63.78
2022-07-30T17:55:32.108Z,64.41
2022-07-30T17:58:00.198Z,64.85
2022-07-30T18:00:28.412Z,65.18
2022-07-30T18:02:56.604Z,65.37
2022-07-30T18:05:24.742Z,65.35
2022-07-30T18:07:53.112Z,65.77
2022-07-30T18:10:22.780Z,66.07
2022-07-30T18:12:50.878Z,66.13
2022-07-30T18:15:20.319Z,66.50
2022-07-30T18:17:48.574Z,67.29
2022-07-30T18:20:17.132Z,67.39
2022-07-30T18:22:45.464Z,68.12
2022-07-30T18:25:19.094Z,68.05
2022-07-30T18:27:49.038Z,68.75
2022-07-30T18:30:17.354Z,69.28
2022-07-30T18:32:45.955Z,69.34
2022-07-30T18:35:15.389Z,69.13
2022-07-30T18:37:44.717Z,69.51
2022-07-30T18:40:14.531Z,69.51
2022-07-30T18:42:43.159Z,69.33
2022-07-30T18:45:14.123Z,69.22
2022-07-30T18:47:42.600Z,69.26
2022-07-30T18:50:11.670Z,68.94
2022-07-30T18:52:40.044Z,68.55
2022-07-30T18:55:11.324Z,68.74
2022-07-30T18:57:39.632Z,69.12
2022-07-30T19:00:35.666Z,68.81
2022-07-30T19:03:01.206Z,68.99
2022-07-30T19:05:29.720Z,68.78
2022-07-30T19:07:58.793Z,68.60
2022-07-30T19:10:28.077Z,68.86
2022-07-30T19:12:57.094Z,69.27
2022-07-30T19:15:25.689Z,69.43
2022-07-30T19:17:54.120Z,69.18
2022-07-30T19:20:24.501Z,69.45
2022-07-30T19:22:53.337Z,69.91
2022-07-30T19:25:21.631Z,70.03
2022-07-30T19:27:49.804Z,69.99
2022-07-30T19:30:18.050Z,70.10
2022-07-30T19:32:46.150Z,70.64
2022-07-30T19:35:14.565Z,70.66
2022-07-30T19:37:44.281Z,70.82
2022-07-30T19:40:13.801Z,70.90
2022-07-30T19:42:42.544Z,70.98
2022-07-30T19:45:13.055Z,71.51
2022-07-30T19:50:29.765Z,71.66
2022-07-30T19:52:59.483Z,72.03
2022-07-30T19:55:35.019Z,72.52
2022-07-30T19:58:16.060Z,72.86
2022-07-30T20:00:49.576Z,72.61
2022-07-30T20:03:25.477Z,72.58
2022-07-30T20:05:58.622Z,72.75
2022-07-30T20:08:29.596Z,72.65
2022-07-30T20:10:59.304Z,72.68
2022-07-30T20:13:44.040Z,72.50
2022-07-30T20:16:15.667Z,72.92
2022-07-30T20:18:46.029Z,72.74
2022-07-30T20:21:15.827Z,72.84
2022-07-30T20:23:46.526Z,73.34
2022-07-30T20:26:16.048Z,73.36
2022-07-30T20:28:52.559Z,74.19
2022-07-30T20:31:21.334Z,74.59
2022-07-30T20:33:50.787Z,75.17
2022-07-30T20:36:19.704Z,76.26
2022-07-30T20:38:49.457Z,77.14
2022-07-30T20:41:17.858Z,77.56
2022-07-30T20:43:52.409Z,77.74
2022-07-30T20:46:23.802Z,78.22
2022-07-30T20:48:52.797Z,79.12
2022-07-30T20:51:21.627Z,79.64
2022-07-30T20:54:03.244Z,80.57
2022-07-30T20:56:31.510Z,80.78
2022-07-30T20:58:59.661Z,80.55
2022-07-30T21:01:30.768Z,80.80
2022-07-30T21:03:59.138Z,81.15
2022-07-30T21:06:27.401Z,81.27
2022-07-30T21:08:56.799Z,81.30
2022-07-30T21:11:26.940Z,81.53
2022-07-30T21:13:55.147Z,82.13
2022-07-30T21:16:23.752Z,82.68
2022-07-30T21:18:51.884Z,83.18
2022-07-30T21:21:30.461Z,83.44
2022-07-30T21:24:12.225Z,83.54
2022-07-30T21:26:42.866Z,83.72
2022-07-30T21:29:11.733Z,83.63
2022-07-30T21:32:01.374Z,83.54
2022-07-30T21:34:30.842Z,84.12
2022-07-30T21:37:03.541Z,83.59
2022-07-30T21:39:31.741Z,83.31
2022-07-30T21:42:10.266Z,82.87
2022-07-30T21:44:38.823Z,82.91
2022-07-30T21:47:10.122Z,82.72
2022-07-30T21:49:39.273Z,82.93
2022-07-30T21:52:08.512Z,83.05
2022-07-30T21:54:48.043Z,83.21
2022-07-30T21:57:26.142Z,83.00
2022-07-30T21:59:55.487Z,82.67
2022-07-30T22:02:23.984Z,83.45
2022-07-30T22:04:52.375Z,83.90
2022-07-30T22:07:21.899Z,83.58
2022-07-30T22:09:50.425Z,83.31
2022-07-30T22:12:20.171Z,83.94
2022-07-30T22:14:49.520Z,84.35
2022-07-30T22:17:23.483Z,83.94
2022-07-30T22:20:08.729Z,84.03
2022-07-30T22:22:39.927Z,84.42
2022-07-30T22:25:09.772Z,84.24
2022-07-30T22:27:56.012Z,84.13
2022-07-30T22:30:26.792Z,84.12
2022-07-30T22:32:55.669Z,84.32
2022-07-30T22:35:32.403Z,84.26
2022-07-30T22:38:02.983Z,84.62
2022-07-30T22:40:31.468Z,84.34
2022-07-30T22:43:04.211Z,84.55
2022-07-30T22:45:48.573Z,84.89
2022-07-30T22:48:17.350Z,84.73
2022-07-30T22:50:48.516Z,84.79
2022-07-30T22:54:10.639Z,84.89
2022-07-30T22:56:14.171Z,85.13
2022-07-30T22:58:45.394Z,85.39
2022-07-30T23:01:16.950Z,86.17
2022-07-30T23:03:45.148Z,85.82
2022-07-30T23:06:16.536Z,84.46
2022-07-30T23:08:44.658Z,85.51
2022-07-30T23:11:12.779Z,86.01
2022-07-30T23:12:15.038Z,71.65
2022-07-30T23:13:40.896Z,85.90
2022-07-30T23:16:10.623Z,85.71
2022-07-30T23:18:38.790Z,84.67
2022-07-30T23:21:06.878Z,84.78
2022-07-30T23:23:35.865Z,84.42
2022-07-30T23:26:04.955Z,84.51
2022-07-30T23:28:33.198Z,84.23
2022-07-30T23:31:01.473Z,83.45
2022-07-30T23:33:31.768Z,83.11
2022-07-30T23:36:00.403Z,82.55
2022-07-30T23:38:28.881Z,83.04
2022-07-30T23:41:01.219Z,82.23
2022-07-30T23:43:29.426Z,81.99
2022-07-30T23:45:57.512Z,81.54
2022-07-30T23:48:25.664Z,81.41
2022-07-30T23:50:55.256Z,80.65
2022-07-30T23:53:23.360Z,80.97
2022-07-30T23:55:52.120Z,81.25
2022-07-30T23:58:20.452Z,81.42
